Airfield :
LOGIN :

Register | Disclaimer

   EN    FR    IT 

 










Legend :    VFR   Marginal VFR   IFR   Intensive IFR   Very Intensive IFR
Visi :
Ceiling :
>= 8 km
>= 3000ft
5 to 8 km
1000 to 3000 ft
1500m to 5 km
500 to 1000 ft
800 to 1500m
200 to 500 ft
< 800m
< 200 ft
Symbols :   Thunderstorms  Fog  Heavy snow  Heavy precipitations  Wind > 20 kt
SIGMETs :     Misc.  Thunderstorms  Icing  Turbulence  Mountain Waves  Volcanic Ashes







- Airport Elevation : 268 ft
- IATA code : BFS
- Download approach charts


EGAA - Belfast Aldergrove

CURRENT METAR :
  • 171850Z 31009KT 5000 -RA BKN003 15/14 Q1006

EXPIRED METARs :
  • 171820Z 29009KT 5000 -RA SCT003 BKN006 15/15 Q1006 RERA
  • 171750Z 19007KT 5000 -RA FEW006 BKN010 BKN014 17/16 Q1005
  • 171720Z 19007KT 9000 SCT006 BKN014 17/16 Q1005 REDZ
  • 171650Z 20008KT 160V230 6000 -RA FEW007 BKN010 17/16 Q1005 REDZ
  • 171620Z 19008KT 160V220 9999 SCT008 BKN013 17/15 Q1006

TAF AMD TAF EGAA
Valid from the 17 at 19:00 until the 18 at 18:00 UTC


171857Z 1719/1818 30015KT 4000 RA RADZ BKN003
BECMG 1719/1720 9999 NSW SCT025
BECMG 1719/1722 24008KT
PROB40
TEMPO 1803/1818 7000 SHRA
PROB30
TEMPO 1803/1810 BKN012
No reported NOTAMs for that airfield.



MET'MAP, your aeronautical weather chart ! - Copyright ORBIFLY December 2007 - Disclaimer

ORBIFLY MET'MAP TEAM :

Programming & Development : Alexandra Zaïnal
Concept & Development : Baudouin d'Aumeries
Co-Development & Prog : Marc-Olivier Méhu
Technical & hardware support : Manuel Goepfert

Contact : metmap@orbifly.com




SOURCES & CREDITS :

   NOAA